Time;durP1;ratioP1;P1;durP2;ratioP2;P2;SDS_P1;SDS_P2;PMS_P1;PMS_P2;Temp;Humidity;BMP_temperature;BMP_pressure;BME280_temperature;BME280_humidity;BME280_pressure;Samples;Min_cycle;Max_cycle;Signal;HPM_P1;HPM_P2
2022/04/04 00:00:01;;;;;;;4.93;2.15;;;2.60;99.90;;;;;;4973328;28;20042;-50
2022/04/04 00:02:26;;;;;;;3.88;1.80;;;2.60;99.90;;;;;;4973421;28;20192;-52
2022/04/04 00:04:52;;;;;;;5.40;2.13;;;2.60;99.90;;;;;;4973076;28;20346;-49
2022/04/04 00:07:18;;;;;;;2.83;1.75;;;2.50;99.90;;;;;;4973090;28;20050;-48
2022/04/04 00:09:43;;;;;;;7.45;2.33;;;2.60;99.90;;;;;;4973056;28;20115;-46
2022/04/04 00:12:09;;;;;;;6.20;2.17;;;2.60;99.90;;;;;;4972844;28;20035;-48
2022/04/04 00:14:35;;;;;;;4.55;1.90;;;2.60;99.90;;;;;;4972803;28;20042;-51
2022/04/04 00:17:00;;;;;;;5.45;2.38;;;2.60;99.90;;;;;;4973083;28;20108;-49
2022/04/04 00:19:27;;;;;;;3.78;1.98;;;2.60;99.90;;;;;;4973006;28;20074;-46
2022/04/04 00:21:53;;;;;;;2.20;2.00;;;2.60;99.90;;;;;;4972901;28;20034;-47
2022/04/04 00:24:18;;;;;;;2.30;1.80;;;2.60;99.90;;;;;;4972443;28;20045;-49
2022/04/04 00:26:44;;;;;;;6.10;2.00;;;2.60;99.90;;;;;;4971880;28;20160;-48
2022/04/04 00:29:09;;;;;;;3.10;1.92;;;2.60;99.90;;;;;;4972360;28;20050;-47
2022/04/04 00:31:35;;;;;;;4.28;2.17;;;2.50;99.90;;;;;;4972748;28;20145;-49
2022/04/04 00:34:01;;;;;;;5.72;2.10;;;2.50;99.90;;;;;;4972410;28;20109;-47
2022/04/04 00:36:27;;;;;;;4.28;2.10;;;2.60;99.90;;;;;;4967445;28;20489;-47
2022/04/04 00:38:52;;;;;;;3.88;2.22;;;2.50;99.90;;;;;;4972460;28;20106;-46
2022/04/04 00:41:18;;;;;;;2.72;2.03;;;2.50;99.90;;;;;;4972694;28;20045;-48
2022/04/04 00:43:44;;;;;;;2.72;2.03;;;2.50;99.90;;;;;;4970586;28;20631;-51
2022/04/04 00:46:10;;;;;;;3.20;2.25;;;2.50;99.90;;;;;;4963064;28;20042;-48
2022/04/04 00:48:35;;;;;;;2.67;1.50;;;2.50;99.90;;;;;;4956554;28;20039;-47
2022/04/04 00:51:02;;;;;;;4.13;2.25;;;2.60;99.90;;;;;;4953072;28;20106;-47
2022/04/04 00:53:29;;;;;;;4.00;1.80;;;2.60;99.90;;;;;;4968021;28;20110;-47
2022/04/04 00:55:55;;;;;;;6.60;2.05;;;2.50;99.90;;;;;;4972041;28;20026;-48
2022/04/04 00:58:21;;;;;;;4.30;2.20;;;2.50;99.90;;;;;;4969535;28;20046;-49
2022/04/04 01:00:48;;;;;;;2.58;1.58;;;2.60;99.90;;;;;;4970012;28;20371;-47
2022/04/04 01:03:17;;;;;;;3.33;2.00;;;2.60;99.90;;;;;;4970016;28;20041;-47
2022/04/04 01:05:44;;;;;;;3.97;2.35;;;2.50;99.90;;;;;;4970553;28;20050;-47
2022/04/04 01:08:13;;;;;;;2.83;2.05;;;2.50;99.90;;;;;;4972139;28;20158;-46
2022/04/04 01:10:41;;;;;;;3.97;2.20;;;2.50;99.90;;;;;;4971821;28;20088;-47
2022/04/04 01:13:07;;;;;;;6.45;2.70;;;2.50;99.90;;;;;;4971583;28;20109;-52
2022/04/04 01:15:33;;;;;;;3.03;2.05;;;2.50;99.90;;;;;;4970921;28;20059;-47
2022/04/04 01:17:59;;;;;;;7.40;2.95;;;2.50;99.90;;;;;;4971713;28;20110;-50
2022/04/04 01:20:25;;;;;;;5.47;2.55;;;2.50;99.90;;;;;;4970600;28;20481;-47
2022/04/04 01:22:51;;;;;;;4.03;2.30;;;2.40;99.90;;;;;;4971125;28;20087;-50
2022/04/04 01:25:23;;;;;;;2.47;1.50;;;2.40;99.90;;;;;;4971862;28;20390;-51
2022/04/04 01:27:48;;;;;;;7.15;2.75;;;2.40;99.90;;;;;;4971727;28;20042;-50
2022/04/04 01:30:14;;;;;;;3.20;1.95;;;2.40;99.90;;;;;;4971567;28;20408;-48
2022/04/04 01:32:40;;;;;;;2.50;1.90;;;2.40;99.90;;;;;;4971425;28;20062;-49
2022/04/04 01:35:07;;;;;;;3.45;2.00;;;2.40;99.90;;;;;;4971698;28;20031;-47
2022/04/04 01:37:33;;;;;;;2.22;2.03;;;2.40;99.90;;;;;;4971831;28;20023;-51
2022/04/04 01:39:58;;;;;;;2.72;2.05;;;2.40;99.90;;;;;;4971483;28;20159;-47
2022/04/04 01:42:24;;;;;;;7.72;2.67;;;2.40;99.90;;;;;;4971213;28;20041;-47
2022/04/04 01:44:50;;;;;;;3.92;2.28;;;2.40;99.90;;;;;;4971590;28;20065;-45
2022/04/04 01:47:16;;;;;;;5.00;2.70;;;2.30;99.90;;;;;;4971220;28;20071;-49
2022/04/04 01:49:42;;;;;;;4.25;2.35;;;2.30;99.90;;;;;;4971433;28;20031;-49
2022/04/04 01:52:07;;;;;;;4.63;2.72;;;2.30;99.90;;;;;;4970838;28;20043;-49
2022/04/04 01:54:33;;;;;;;3.15;2.20;;;2.30;99.90;;;;;;4971685;28;20027;-45
2022/04/04 01:56:59;;;;;;;3.53;2.15;;;2.30;99.90;;;;;;4971128;28;20030;-47
2022/04/04 01:59:24;;;;;;;3.80;2.60;;;2.20;99.90;;;;;;4971435;28;20552;-45
2022/04/04 02:01:51;;;;;;;3.95;2.63;;;2.30;99.90;;;;;;4971026;28;20023;-48
2022/04/04 02:04:17;;;;;;;3.30;2.67;;;2.20;99.90;;;;;;4971295;28;20023;-44
2022/04/04 02:06:43;;;;;;;3.05;2.58;;;2.20;99.90;;;;;;4970851;28;20031;-47
2022/04/04 02:09:09;;;;;;;3.28;2.33;;;2.20;99.90;;;;;;4970887;28;20019;-47
2022/04/04 02:11:34;;;;;;;3.15;2.42;;;2.20;99.90;;;;;;4971093;28;20807;-47
2022/04/04 02:14:02;;;;;;;4.32;3.05;;;2.10;99.90;;;;;;4970649;28;20039;-46
2022/04/04 02:16:28;;;;;;;7.82;2.80;;;2.10;99.90;;;;;;4969713;28;20041;-48
2022/04/04 02:18:53;;;;;;;5.95;2.60;;;2.10;99.90;;;;;;4969937;28;20023;-47
2022/04/04 02:21:19;;;;;;;5.15;2.85;;;2.10;99.90;;;;;;4971181;28;20027;-45
2022/04/04 02:23:45;;;;;;;4.57;3.45;;;2.10;99.90;;;;;;4970660;28;20039;-46
2022/04/04 02:26:11;;;;;;;3.33;3.00;;;2.10;99.90;;;;;;4971002;28;20062;-51
2022/04/04 02:28:37;;;;;;;7.43;3.30;;;2.00;99.90;;;;;;4970990;28;20101;-46
2022/04/04 02:31:03;;;;;;;4.43;2.92;;;2.00;99.90;;;;;;4971261;28;20082;-48
2022/04/04 02:33:29;;;;;;;5.40;3.00;;;2.00;99.90;;;;;;4970998;28;20034;-45
2022/04/04 02:35:55;;;;;;;5.68;4.45;;;2.00;99.90;;;;;;4970445;28;20370;-49
2022/04/04 02:38:24;;;;;;;6.07;3.10;;;2.00;99.90;;;;;;4970784;28;20031;-47
2022/04/04 02:40:50;;;;;;;6.55;3.47;;;2.00;99.90;;;;;;4970720;28;20537;-45
2022/04/04 02:43:17;;;;;;;3.25;2.58;;;2.00;99.90;;;;;;4970622;28;20039;-48
2022/04/04 02:45:43;;;;;;;6.03;3.20;;;2.00;99.90;;;;;;4970604;28;20073;-44
2022/04/04 02:48:08;;;;;;;3.47;2.90;;;2.00;99.90;;;;;;4969276;28;20023;-46
2022/04/04 02:50:34;;;;;;;4.78;3.17;;;2.00;99.90;;;;;;4970444;28;20416;-47
2022/04/04 02:53:01;;;;;;;7.25;2.97;;;2.00;99.90;;;;;;4970233;28;20031;-47
2022/04/04 02:58:11;;;;;;;3.75;3.20;;;2.00;99.90;;;;;;4970331;28;20498;-49
2022/04/04 03:00:36;;;;;;;4.95;2.95;;;2.00;99.90;;;;;;4969202;28;20031;-46
2022/04/04 03:03:02;;;;;;;8.32;2.70;;;2.00;99.90;;;;;;4970263;28;20077;-49
2022/04/04 03:05:28;;;;;;;2.78;2.58;;;2.00;99.90;;;;;;4970320;28;20046;-45
2022/04/04 03:07:54;;;;;;;3.58;3.22;;;2.00;99.90;;;;;;4970680;28;20026;-48
2022/04/04 03:10:20;;;;;;;5.00;2.80;;;2.00;99.90;;;;;;4970639;28;20105;-47
2022/04/04 03:12:50;;;;;;;6.38;2.90;;;2.00;99.90;;;;;;4970215;28;20027;-46
2022/04/04 03:15:23;;;;;;;5.78;2.72;;;2.00;99.90;;;;;;4970651;28;20110;-44
2022/04/04 03:17:53;;;;;;;2.55;2.22;;;2.10;99.90;;;;;;4970354;28;20051;-45
2022/04/04 03:20:20;;;;;;;4.97;2.92;;;2.00;99.90;;;;;;4971391;28;20129;-47
2022/04/04 03:22:49;;;;;;;4.50;2.72;;;2.10;99.90;;;;;;4973844;28;20392;-47
2022/04/04 03:25:15;;;;;;;6.40;3.17;;;2.00;99.90;;;;;;4973985;28;20440;-49
2022/04/04 03:27:42;;;;;;;3.20;2.90;;;2.00;99.90;;;;;;4974263;28;20026;-47
2022/04/04 03:30:22;;;;;;;3.50;2.65;;;2.10;99.90;;;;;;4974256;28;20034;-48
2022/04/04 03:32:49;;;;;;;4.78;3.03;;;2.10;99.90;;;;;;4973365;28;20018;-49
2022/04/04 03:35:15;;;;;;;4.13;2.70;;;2.10;99.90;;;;;;4974093;28;20158;-50
2022/04/04 03:37:43;;;;;;;4.90;2.90;;;2.10;99.90;;;;;;4973975;28;20030;-48
2022/04/04 03:40:12;;;;;;;4.00;2.67;;;2.10;99.90;;;;;;4974038;28;20421;-48
2022/04/04 03:42:38;;;;;;;3.20;2.88;;;2.20;99.90;;;;;;4973513;28;20121;-46
2022/04/04 03:45:04;;;;;;;3.25;2.95;;;2.10;99.90;;;;;;4973725;28;20034;-45
2022/04/04 03:47:31;;;;;;;6.25;3.38;;;2.10;99.90;;;;;;4974250;28;20026;-47
2022/04/04 03:49:59;;;;;;;4.55;3.20;;;2.10;99.90;;;;;;4970203;28;20121;-46
2022/04/04 03:52:25;;;;;;;4.60;2.80;;;2.10;99.90;;;;;;4969794;28;20045;-47
2022/04/04 03:54:50;;;;;;;5.97;3.35;;;2.20;99.90;;;;;;4973438;28;20109;-49
2022/04/04 03:57:16;;;;;;;4.50;3.00;;;2.20;99.90;;;;;;4973539;28;20059;-48
2022/04/04 03:59:42;;;;;;;6.65;3.22;;;2.20;99.90;;;;;;4954998;28;20027;-47
2022/04/04 04:02:07;;;;;;;4.80;3.33;;;2.20;99.90;;;;;;4954142;28;20034;-47
2022/04/04 04:04:33;;;;;;;4.00;2.60;;;2.20;99.90;;;;;;4972184;28;20545;-49
2022/04/04 04:06:58;;;;;;;3.95;3.10;;;2.20;99.90;;;;;;4973285;28;20034;-48
2022/04/04 04:09:24;;;;;;;4.22;3.35;;;2.20;99.90;;;;;;4973015;28;20035;-46
2022/04/04 04:11:50;;;;;;;5.70;3.25;;;2.20;99.90;;;;;;4973048;28;20109;-48
2022/04/04 04:14:15;;;;;;;4.07;3.10;;;2.20;99.90;;;;;;4972870;28;20520;-47
2022/04/04 04:16:41;;;;;;;4.00;2.58;;;2.20;99.90;;;;;;4973189;28;20038;-45
2022/04/04 04:20:19;;;;;;;3.53;3.20;;;2.20;99.90;;;;;;4972616;28;20035;-46
2022/04/04 04:21:52;;;;;;;3.40;3.10;;;2.20;99.90;;;;;;4972607;28;20109;-47
2022/04/04 04:24:18;;;;;;;7.45;3.40;;;2.30;99.90;;;;;;4972709;28;20565;-44
2022/04/04 04:26:44;;;;;;;3.92;3.03;;;2.30;99.90;;;;;;4970140;28;20019;-45
2022/04/04 04:29:09;;;;;;;7.03;3.28;;;2.30;99.90;;;;;;4973304;28;20449;-45
2022/04/04 04:31:35;;;;;;;7.80;3.10;;;2.30;99.90;;;;;;4963624;28;20035;-46
2022/04/04 04:34:03;;;;;;;3.38;3.08;;;2.30;99.90;;;;;;4952586;28;20324;-46
2022/04/04 04:36:28;;;;;;;6.88;3.30;;;2.30;99.90;;;;;;4970117;28;20026;-47
2022/04/04 04:38:54;;;;;;;5.07;3.50;;;2.30;99.90;;;;;;4972972;28;20022;-46
2022/04/04 04:41:20;;;;;;;5.00;3.30;;;2.30;99.90;;;;;;4972659;28;20101;-45
2022/04/04 04:43:45;;;;;;;3.35;2.97;;;2.40;99.90;;;;;;4972438;28;20102;-49
2022/04/04 04:46:11;;;;;;;4.05;3.08;;;2.40;99.90;;;;;;4972721;28;20027;-48
2022/04/04 04:48:37;;;;;;;4.60;3.30;;;2.40;99.90;;;;;;4972509;28;20069;-47
2022/04/04 04:51:02;;;;;;;4.22;3.42;;;2.40;99.90;;;;;;4972060;28;20401;-44
2022/04/04 04:53:28;;;;;;;6.47;3.15;;;2.40;99.90;;;;;;4972611;28;20451;-46
2022/04/04 04:55:53;;;;;;;5.90;3.50;;;2.50;99.90;;;;;;4972559;28;20041;-46
2022/04/04 04:58:19;;;;;;;7.30;3.92;;;2.50;99.90;;;;;;4971990;28;20089;-46
2022/04/04 05:00:45;;;;;;;8.45;3.67;;;2.50;99.90;;;;;;4971867;28;20038;-47
2022/04/04 05:03:26;;;;;;;4.47;3.40;;;2.50;99.90;;;;;;4964105;28;20042;-46
2022/04/04 05:05:52;;;;;;;5.18;3.53;;;2.60;99.90;;;;;;4972473;28;20058;-46
2022/04/04 05:08:18;;;;;;;4.35;3.60;;;2.60;99.90;;;;;;4972418;28;20038;-48
2022/04/04 05:10:44;;;;;;;7.40;4.13;;;2.60;99.90;;;;;;4972109;28;20030;-48
2022/04/04 05:13:09;;;;;;;5.68;3.75;;;2.70;99.90;;;;;;4972005;28;20035;-46
2022/04/04 05:15:35;;;;;;;6.10;4.20;;;2.70;99.90;;;;;;4972378;28;20023;-49
2022/04/04 05:18:01;;;;;;;3.90;3.55;;;2.70;99.90;;;;;;4972352;28;20129;-46
2022/04/04 05:20:26;;;;;;;4.72;4.25;;;2.70;99.90;;;;;;4972021;28;20078;-43
2022/04/04 05:22:52;;;;;;;6.20;4.15;;;2.80;99.90;;;;;;4971804;28;20035;-47
2022/04/04 05:25:18;;;;;;;6.45;4.70;;;2.80;99.90;;;;;;4972080;28;20035;-47
2022/04/04 05:27:43;;;;;;;6.70;5.60;;;2.90;99.90;;;;;;4972198;28;20034;-47
2022/04/04 05:30:10;;;;;;;7.72;4.68;;;2.90;99.90;;;;;;4971953;28;20537;-46
2022/04/04 05:32:36;;;;;;;8.63;5.65;;;2.90;99.90;;;;;;4971732;28;20077;-48
2022/04/04 05:35:08;;;;;;;6.75;6.00;;;3.00;99.90;;;;;;4971969;28;20450;-52
2022/04/04 05:37:34;;;;;;;7.45;5.82;;;3.00;99.90;;;;;;4971791;28;20026;-52
2022/04/04 05:40:00;;;;;;;7.90;5.53;;;3.00;99.90;;;;;;4972190;28;20116;-51
2022/04/04 05:42:26;;;;;;;9.88;6.07;;;3.10;99.90;;;;;;4970952;28;20070;-49
2022/04/04 05:44:51;;;;;;;10.13;6.28;;;3.10;99.90;;;;;;4971983;28;20110;-48
2022/04/04 05:47:20;;;;;;;9.07;5.85;;;3.10;99.90;;;;;;4971742;28;20074;-48
2022/04/04 05:49:46;;;;;;;9.82;6.50;;;3.10;99.90;;;;;;4997302;23;20046;-48
2022/04/04 05:52:11;;;;;;;12.00;7.35;;;3.10;99.90;;;;;;4989200;28;20121;-48
2022/04/04 05:54:54;;;;;;;11.57;7.22;;;3.20;99.90;;;;;;4990515;28;20101;-49
2022/04/04 05:57:24;;;;;;;9.27;6.80;;;3.20;99.90;;;;;;4990914;28;20029;-50
2022/04/04 05:59:51;;;;;;;9.38;7.30;;;3.20;99.90;;;;;;4990735;28;20049;-49
2022/04/04 06:02:17;;;;;;;10.98;7.30;;;3.20;99.90;;;;;;4990519;28;20398;-48
2022/04/04 06:04:42;;;;;;;9.13;8.13;;;3.20;99.90;;;;;;4990471;28;20053;-48
2022/04/04 06:07:08;;;;;;;9.88;8.50;;;3.20;99.90;;;;;;4990777;28;20034;-47
2022/04/04 06:09:33;;;;;;;14.90;8.43;;;3.20;99.90;;;;;;4990723;28;20049;-49
2022/04/04 06:11:59;;;;;;;10.13;8.35;;;3.20;99.90;;;;;;4990337;28;20058;-50
2022/04/04 06:14:25;;;;;;;9.70;8.27;;;3.20;99.90;;;;;;4990770;28;20141;-49
2022/04/04 06:16:50;;;;;;;11.98;8.45;;;3.20;99.90;;;;;;4990576;28;20030;-49
2022/04/04 06:19:16;;;;;;;12.07;8.77;;;3.10;99.90;;;;;;4990057;28;20030;-48
2022/04/04 06:21:42;;;;;;;11.75;8.98;;;3.10;99.90;;;;;;4990896;28;20567;-50
2022/04/04 06:24:08;;;;;;;17.13;10.27;;;3.10;99.90;;;;;;4990461;28;20070;-50
2022/04/04 06:26:33;;;;;;;11.05;9.07;;;3.00;99.90;;;;;;4990482;28;20030;-48
2022/04/04 06:28:59;;;;;;;13.70;9.95;;;3.00;99.90;;;;;;4990520;28;20105;-50
2022/04/04 06:31:24;;;;;;;13.57;10.20;;;3.00;99.90;;;;;;4990137;28;20082;-48
2022/04/04 06:33:50;;;;;;;11.43;9.75;;;3.00;99.90;;;;;;4990117;28;20023;-49
2022/04/04 06:36:16;;;;;;;16.40;10.77;;;3.00;99.90;;;;;;4990245;28;20027;-50
2022/04/04 06:38:41;;;;;;;18.98;12.57;;;3.00;99.90;;;;;;4990119;28;20029;-49
2022/04/04 06:41:07;;;;;;;13.65;11.05;;;3.00;99.90;;;;;;4990170;28;20037;-48
2022/04/04 06:43:32;;;;;;;15.15;11.18;;;3.00;99.90;;;;;;4989911;28;20027;-47
2022/04/04 06:45:59;;;;;;;14.30;11.57;;;3.00;99.90;;;;;;4990162;28;20033;-49
2022/04/04 06:48:25;;;;;;;15.32;11.55;;;3.00;99.90;;;;;;4989974;28;20528;-48
2022/04/04 06:50:51;;;;;;;13.07;10.82;;;3.00;99.90;;;;;;4988570;28;20715;-52
2022/04/04 06:53:16;;;;;;;15.00;11.95;;;3.00;99.90;;;;;;4989887;28;20031;-49
2022/04/04 06:55:44;;;;;;;17.05;12.43;;;3.00;99.90;;;;;;4992123;28;20027;-52
2022/04/04 06:58:11;;;;;;;15.27;12.32;;;3.00;99.90;;;;;;4994602;28;20101;-49
2022/04/04 07:00:36;;;;;;;16.95;13.23;;;3.00;99.90;;;;;;4993090;28;20493;-50
2022/04/04 07:03:02;;;;;;;14.15;11.90;;;2.90;99.90;;;;;;4993792;28;20054;-50
2022/04/04 07:05:28;;;;;;;17.02;13.57;;;2.90;99.90;;;;;;4994014;28;20026;-51
2022/04/04 07:07:53;;;;;;;20.30;14.50;;;3.00;99.90;;;;;;4994182;28;20026;-50
2022/04/04 07:10:20;;;;;;;16.08;12.52;;;3.00;99.90;;;;;;4993983;28;20515;-49
2022/04/04 07:12:46;;;;;;;17.25;13.80;;;3.00;99.90;;;;;;4992239;28;20026;-50
2022/04/04 07:15:12;;;;;;;18.65;14.18;;;3.00;99.90;;;;;;4992530;28;20019;-49
2022/04/04 07:17:39;;;;;;;17.88;14.05;;;3.00;99.90;;;;;;4993230;28;20489;-50
2022/04/04 07:20:06;;;;;;;17.17;13.45;;;3.00;99.90;;;;;;4993523;28;20045;-49
2022/04/04 07:22:40;;;;;;;15.82;13.48;;;3.10;99.90;;;;;;4993253;28;20032;-50
2022/04/04 07:25:07;;;;;;;17.75;13.27;;;3.00;99.90;;;;;;4974276;28;20023;-51
2022/04/04 07:27:33;;;;;;;17.02;13.68;;;3.00;99.90;;;;;;4975705;28;20033;-50
2022/04/04 07:29:59;;;;;;;17.88;13.50;;;3.00;99.90;;;;;;4973751;28;20037;-51
2022/04/04 07:32:25;;;;;;;18.83;14.13;;;3.10;99.90;;;;;;4991501;28;20042;-48
2022/04/04 07:34:51;;;;;;;17.85;13.00;;;3.00;99.90;;;;;;4993591;28;20034;-50
2022/04/04 07:37:17;;;;;;;15.18;12.35;;;3.10;99.90;;;;;;4993801;28;20027;-48
2022/04/04 07:39:42;;;;;;;15.68;12.38;;;3.10;99.90;;;;;;4993749;28;20023;-51
2022/04/04 07:42:08;;;;;;;15.65;13.48;;;3.10;99.90;;;;;;4992624;28;20157;-50
2022/04/04 07:44:34;;;;;;;17.83;13.00;;;3.10;99.90;;;;;;4993301;28;20034;-48
2022/04/04 07:47:00;;;;;;;14.35;12.57;;;3.10;99.90;;;;;;4992898;28;20049;-49
2022/04/04 07:49:26;;;;;;;14.10;12.20;;;3.10;99.90;;;;;;4992877;28;20080;-47
2022/04/04 07:51:52;;;;;;;16.85;12.88;;;3.10;99.90;;;;;;4992817;28;20042;-50
2022/04/04 07:54:18;;;;;;;15.95;11.90;;;3.10;99.90;;;;;;4992888;28;20117;-49
2022/04/04 07:56:44;;;;;;;14.90;10.82;;;3.10;99.90;;;;;;4992616;28;20105;-47
2022/04/04 07:59:11;;;;;;;12.85;11.05;;;3.10;99.90;;;;;;4992980;28;20041;-47
2022/04/04 08:01:36;;;;;;;13.40;11.18;;;3.10;99.90;;;;;;4993187;28;20034;-50
2022/04/04 08:04:02;;;;;;;15.35;11.63;;;3.00;99.90;;;;;;4992829;28;20084;-49
2022/04/04 08:06:28;;;;;;;12.40;11.05;;;3.00;99.90;;;;;;4992087;28;20058;-47
2022/04/04 08:08:53;;;;;;;14.70;11.77;;;3.00;99.90;;;;;;4993105;28;20400;-49
2022/04/04 08:11:19;;;;;;;13.38;11.88;;;3.00;99.90;;;;;;4992141;28;20075;-50
2022/04/04 08:13:45;;;;;;;13.88;12.23;;;3.00;99.90;;;;;;4992767;28;20141;-54
2022/04/04 08:16:11;;;;;;;16.10;13.13;;;2.90;99.90;;;;;;4992506;28;20400;-51
2022/04/04 08:18:37;;;;;;;16.60;12.13;;;2.90;99.90;;;;;;4992626;28;20599;-50
2022/04/04 08:21:02;;;;;;;13.30;11.57;;;2.90;99.90;;;;;;4992276;28;20029;-48
2022/04/04 08:23:29;;;;;;;14.77;13.13;;;2.90;99.90;;;;;;4991458;28;20615;-49
2022/04/04 08:25:59;;;;;;;17.60;12.80;;;2.90;99.90;;;;;;4983567;28;20116;-49
2022/04/04 08:28:25;;;;;;;17.63;12.73;;;2.90;99.90;;;;;;4991475;28;20248;-49
2022/04/04 08:30:51;;;;;;;16.83;13.98;;;2.90;99.90;;;;;;4991826;28;20037;-49
2022/04/04 08:33:18;;;;;;;14.73;13.23;;;2.90;99.90;;;;;;4973496;28;20038;-50
2022/04/04 08:35:45;;;;;;;16.83;14.02;;;2.90;99.90;;;;;;4976464;28;20044;-50
2022/04/04 08:38:11;;;;;;;17.83;14.30;;;3.00;99.90;;;;;;4991990;28;20055;-49
2022/04/04 08:40:38;;;;;;;15.52;13.93;;;3.00;99.90;;;;;;4991620;28;20022;-49
2022/04/04 08:43:06;;;;;;;15.45;12.77;;;3.00;99.90;;;;;;4991239;28;20425;-50
2022/04/04 08:45:32;;;;;;;18.50;14.55;;;3.00;99.90;;;;;;4992116;28;20061;-50
2022/04/04 08:47:58;;;;;;;16.20;14.52;;;3.00;99.90;;;;;;4991965;28;20061;-50
2022/04/04 08:50:23;;;;;;;15.32;13.20;;;3.00;99.90;;;;;;4991178;28;20042;-52
2022/04/04 08:52:49;;;;;;;15.48;13.65;;;3.00;99.90;;;;;;4991517;28;20113;-47
2022/04/04 08:55:16;;;;;;;15.82;13.52;;;3.10;99.90;;;;;;4992109;28;20034;-51
2022/04/04 08:57:42;;;;;;;18.42;14.23;;;3.00;99.90;;;;;;4991441;28;20026;-50
2022/04/04 09:00:10;;;;;;;16.83;13.25;;;3.00;99.90;;;;;;4991497;28;20337;-51
2022/04/04 09:02:36;;;;;;;14.55;12.77;;;3.10;99.90;;;;;;4991689;28;20681;-52
2022/04/04 09:05:07;;;;;;;18.70;13.68;;;3.00;99.90;;;;;;4991373;28;20030;-52
2022/04/04 09:07:32;;;;;;;15.90;13.75;;;3.00;99.90;;;;;;4991796;28;20109;-52
2022/04/04 09:10:00;;;;;;;15.20;13.07;;;3.00;99.90;;;;;;4991628;28;20121;-49
2022/04/04 09:12:26;;;;;;;14.43;12.98;;;3.10;99.90;;;;;;4990226;28;20094;-51
2022/04/04 09:14:57;;;;;;;15.05;13.55;;;3.10;99.90;;;;;;4991751;28;20026;-51
2022/04/04 09:17:28;;;;;;;13.88;11.35;;;3.10;99.90;;;;;;4973638;28;20483;-50
2022/04/04 09:19:55;;;;;;;14.45;11.73;;;3.10;99.90;;;;;;4991133;28;20378;-50
2022/04/04 09:22:22;;;;;;;14.15;12.30;;;3.10;99.90;;;;;;4991421;28;20062;-51
2022/04/04 09:24:50;;;;;;;14.20;12.85;;;3.10;99.90;;;;;;4991374;28;20053;-52
2022/04/04 09:27:27;;;;;;;13.70;12.07;;;3.10;99.90;;;;;;4991086;28;20042;-49
2022/04/04 09:29:58;;;;;;;13.82;10.73;;;3.20;99.90;;;;;;4991713;28;20436;-53
2022/04/04 09:32:41;;;;;;;13.13;11.32;;;3.20;99.90;;;;;;4991217;28;20457;-54
2022/04/04 09:35:16;;;;;;;13.27;11.88;;;3.10;99.90;;;;;;4990029;28;20037;-50
2022/04/04 09:37:48;;;;;;;14.60;11.18;;;3.20;99.90;;;;;;4991293;28;20073;-54
2022/04/04 09:40:16;;;;;;;15.60;12.10;;;3.20;99.90;;;;;;4991471;28;20026;-51
2022/04/04 09:42:51;;;;;;;14.52;11.80;;;3.20;99.90;;;;;;4990919;28;20034;-50
2022/04/04 09:45:19;;;;;;;13.35;11.98;;;3.20;99.90;;;;;;4990754;28;20118;-51
2022/04/04 09:47:50;;;;;;;12.68;10.63;;;3.10;99.90;;;;;;4990701;28;20551;-51
2022/04/04 09:50:47;;;;;;;13.45;10.82;;;3.10;99.90;;;;;;4990394;28;20037;-50
2022/04/04 09:53:19;;;;;;;12.48;11.15;;;3.10;99.90;;;;;;4990876;28;20085;-50
2022/04/04 09:55:49;;;;;;;13.38;10.75;;;3.20;99.90;;;;;;4990638;28;20057;-49
2022/04/04 09:58:19;;;;;;;13.15;10.32;;;3.10;99.90;;;;;;4990545;28;20069;-50
2022/04/04 10:00:46;;;;;;;15.88;10.93;;;3.20;99.90;;;;;;4990919;28;20030;-50
2022/04/04 10:03:13;;;;;;;12.23;10.32;;;3.20;99.90;;;;;;4990434;28;20034;-51
2022/04/04 10:05:43;;;;;;;13.80;11.43;;;3.20;99.90;;;;;;4990454;28;20036;-50
2022/04/04 10:08:12;;;;;;;12.63;11.27;;;3.30;99.90;;;;;;4989946;28;20080;-51
2022/04/04 10:10:38;;;;;;;13.32;10.07;;;3.30;99.90;;;;;;4975915;28;20038;-50
2022/04/04 10:13:04;;;;;;;13.65;10.38;;;3.30;99.90;;;;;;4990567;28;20041;-51
2022/04/04 10:15:30;;;;;;;11.90;10.15;;;3.30;99.90;;;;;;4990718;28;20109;-51
2022/04/04 10:17:56;;;;;;;10.90;9.77;;;3.30;99.90;;;;;;4990772;28;20105;-51
2022/04/04 10:20:22;;;;;;;14.55;10.73;;;3.30;99.90;;;;;;4990691;28;20381;-49
2022/04/04 10:22:51;;;;;;;11.75;10.52;;;3.40;99.90;;;;;;4990088;28;20034;-48
2022/04/04 10:25:21;;;;;;;11.85;9.70;;;3.40;99.90;;;;;;4990429;28;20096;-51
2022/04/04 10:27:48;;;;;;;13.10;11.18;;;3.40;99.90;;;;;;4990361;28;20034;-50
2022/04/04 10:30:16;;;;;;;10.77;9.57;;;3.40;99.90;;;;;;4989463;28;20570;-51
2022/04/04 10:32:53;;;;;;;12.23;10.68;;;3.40;99.90;;;;;;4989921;28;20082;-51
2022/04/04 10:35:22;;;;;;;;;;;3.50;99.90;;;;;;4990563;28;20034;-49
2022/04/04 10:37:49;;;;;;;16.40;12.93;;;3.50;99.90;;;;;;4990361;28;19913;-51
2022/04/04 10:40:29;;;;;;;26.17;17.15;;;3.50;99.90;;;;;;4990191;28;20041;-51
2022/04/04 10:43:11;;;;;;;23.98;15.55;;;3.50;99.90;;;;;;4990140;28;20026;-53
2022/04/04 10:45:58;;;;;;;20.40;14.45;;;3.60;99.90;;;;;;4990151;28;20030;-50
2022/04/04 10:48:31;;;;;;;;;;;3.50;99.90;;;;;;4990599;28;20026;-51
2022/04/04 10:51:10;;;;;;;14.68;11.15;;;3.50;99.90;;;;;;4989828;28;19914;-48
2022/04/04 10:53:40;;;;;;;12.75;10.23;;;3.50;99.90;;;;;;4989941;28;20054;-50
2022/04/04 10:56:08;;;;;;;13.15;10.68;;;3.60;99.90;;;;;;4990254;28;20028;-53
2022/04/04 10:58:34;;;;;;;11.85;9.75;;;3.60;99.90;;;;;;4990173;28;20121;-51
2022/04/04 11:01:14;;;;;;;10.98;9.88;;;3.60;99.90;;;;;;4989896;28;20097;-51
2022/04/04 11:03:52;;;;;;;10.73;9.50;;;3.60;99.90;;;;;;4988271;28;20018;-52
2022/04/04 11:09:22;;;;;;;13.32;10.13;;;3.60;99.90;;;;;;4989195;28;20401;-50
2022/04/04 11:11:49;;;;;;;13.57;10.82;;;3.70;99.90;;;;;;4989762;28;20038;-51
2022/04/04 11:14:17;;;;;;;12.15;10.05;;;3.70;99.90;;;;;;4988707;28;20049;-53
2022/04/04 11:17:06;;;;;;;10.85;9.77;;;3.70;99.90;;;;;;4989522;28;20027;-51
2022/04/04 11:19:52;;;;;;;13.00;11.60;;;3.70;99.90;;;;;;4988933;28;20034;-51
2022/04/04 11:22:23;;;;;;;11.88;10.60;;;3.70;99.90;;;;;;4989434;28;20030;-52
2022/04/04 11:25:03;;;;;;;13.35;11.93;;;3.70;99.90;;;;;;4989799;28;20062;-51
2022/04/04 11:27:33;;;;;;;11.63;10.48;;;3.70;99.90;;;;;;4989456;28;20049;-50
2022/04/04 11:30:05;;;;;;;12.35;11.05;;;3.70;99.90;;;;;;4990023;28;20041;-51
2022/04/04 11:32:34;;;;;;;12.52;11.35;;;3.70;99.90;;;;;;4989328;28;20048;-52
2022/04/04 11:35:15;;;;;;;12.32;11.02;;;3.70;99.90;;;;;;4990212;28;20022;-53
2022/04/04 11:37:44;;;;;;;12.13;10.73;;;3.70;99.90;;;;;;4989392;28;20546;-52
2022/04/04 11:40:15;;;;;;;14.60;11.70;;;3.70;99.90;;;;;;4989681;28;20029;-51
2022/04/04 11:42:42;;;;;;;13.55;11.70;;;3.70;99.90;;;;;;4992458;28;20030;-50
2022/04/04 11:45:08;;;;;;;14.63;13.07;;;3.70;99.90;;;;;;4993157;28;20366;-53
2022/04/04 11:47:39;;;;;;;15.38;13.30;;;3.70;99.90;;;;;;4992915;28;20042;-51
2022/04/04 11:50:06;;;;;;;17.33;13.55;;;3.70;99.90;;;;;;4992833;28;20117;-51
2022/04/04 11:52:48;;;;;;;18.80;15.00;;;3.80;99.90;;;;;;4992186;28;20030;-51
2022/04/04 11:55:16;;;;;;;19.00;13.73;;;3.80;99.90;;;;;;4991308;28;20023;-51
2022/04/04 11:57:46;;;;;;;15.38;12.77;;;3.80;99.90;;;;;;4992854;28;20022;-51
2022/04/04 12:00:22;;;;;;;19.70;13.85;;;3.80;99.90;;;;;;4993143;28;20018;-52
2022/04/04 12:02:48;;;;;;;16.77;13.25;;;3.80;99.90;;;;;;4992989;28;20022;-51
2022/04/04 12:05:14;;;;;;;12.18;10.85;;;3.90;99.90;;;;;;4992976;28;20142;-51
2022/04/04 12:07:42;;;;;;;12.98;11.13;;;3.90;99.90;;;;;;4992989;28;20018;-53
2022/04/04 12:10:08;;;;;;;11.10;9.88;;;3.90;99.90;;;;;;4991457;28;20038;-51
2022/04/04 12:12:34;;;;;;;11.95;10.70;;;3.90;99.90;;;;;;4992800;28;20031;-52
2022/04/04 12:14:59;;;;;;;13.00;10.95;;;4.00;99.90;;;;;;4993113;28;20108;-49
2022/04/04 12:17:25;;;;;;;11.50;10.30;;;4.00;99.90;;;;;;4993005;28;20023;-50
2022/04/04 12:19:52;;;;;;;12.95;11.55;;;4.00;99.90;;;;;;4992564;28;20551;-51
2022/04/04 12:25:11;;;;;;;11.30;10.20;;;4.10;99.90;;;;;;4992829;28;20040;-55
2022/04/04 12:27:54;;;;;;;10.70;9.60;;;4.10;99.90;;;;;;4990635;28;20086;-49
2022/04/04 12:30:29;;;;;;;11.80;10.60;;;4.20;99.90;;;;;;4990160;28;20053;-50
2022/04/04 12:33:12;;;;;;;11.48;10.25;;;4.20;99.90;;;;;;4990407;28;20028;-51
2022/04/04 12:35:43;;;;;;;11.20;10.02;;;4.30;99.90;;;;;;4988352;28;20554;-51
2022/04/04 12:38:10;;;;;;;10.90;9.18;;;4.30;99.90;;;;;;4989144;28;20049;-51
2022/04/04 12:40:38;;;;;;;10.00;8.50;;;4.40;99.90;;;;;;4985067;28;20049;-50
2022/04/04 12:43:10;;;;;;;9.60;8.48;;;4.40;99.90;;;;;;4991502;28;20512;-52
2022/04/04 12:45:46;;;;;;;10.57;9.48;;;4.50;99.90;;;;;;4983652;28;20090;-49
2022/04/04 12:48:13;;;;;;;10.18;9.05;;;4.50;99.90;;;;;;4990805;28;20027;-51
2022/04/04 12:50:49;;;;;;;10.35;8.98;;;4.50;99.90;;;;;;4988227;28;20073;-51
2022/04/04 12:53:16;;;;;;;9.57;8.68;;;4.60;99.90;;;;;;4990168;28;20058;-51
2022/04/04 12:56:00;;;;;;;9.27;8.27;;;4.60;99.90;;;;;;4988166;28;20532;-51
2022/04/04 12:58:26;;;;;;;9.00;8.13;;;4.60;99.90;;;;;;4990859;28;20368;-54